F.r. Bigelow — WDB8153 — position and weather

sailwx.info

Track history (hours):
 
Tides and Currents Weather Stations Pressure Air Temp Water Temp Dewpoint Dewpoint Depression Visibility Wind Speed Wind Dir Waves Ship Positions

F.r. Bigelow

Owner: INGRAM BARGE COMPANY, Nashville, TN. More information available from US FCC via Universal Licensing System and Coast Guard Vessel Documentation Center.

Last reported at 2015-May-24 22:21 UTC. Time now 2015-May-25 17:36 UTC.
Position N 29°54' W 089°54'.

Length 46 m; draft 2.7 m.

Type: Tow > 200 m length. MMSI: 366953890.

Date/timePositionNaut miles runAvg speedWind from/ knotsBaromVisibWave heightAir tempDewpointWater temp
2015-May-24 22:21N 29°54' W 089°54'5 6.3
2015-May-24 21:31N 29°56' W 089°60'4 3.5
2015-May-24 20:30N 29°56' W 090°04'58 3.5
2015-May-24 04:09N 30°15' W 091°07'6 6.5
2015-May-24 03:11N 30°17' W 091°13'4 5.2
2015-May-24 02:20N 30°19' W 091°09'5 5.7
2015-May-24 01:32N 30°20' W 091°14'7 6.9
2015-May-24 00:34N 30°27' W 091°12'3 2.5
2015-May-23 23:33N 30°29' W 091°12'0 0.1
2015-May-23 22:33N 30°29' W 091°12'0 0.0
2015-May-23 21:34N 30°29' W 091°12'0 0.0
2015-May-23 20:34N 30°29' W 091°12'1 0.8
2015-May-23 19:33N 30°29' W 091°12'2 1.7
2015-May-23 18:33N 30°27' W 091°12'0 0.0
2015-May-23 17:34N 30°27' W 091°12'0 0.0
2015-May-23 16:33N 30°27' W 091°12'0 0.0
2015-May-23 15:34N 30°27' W 091°12'0 0.0
2015-May-23 14:34N 30°27' W 091°12'0 0.0
2015-May-23 13:34N 30°27' W 091°12'1 0.7
2015-May-23 12:33N 30°26' W 091°12'4 4.1
2015-May-23 11:34N 30°22' W 091°14'2 2.3
2015-May-23 10:33N 30°21' W 091°12'3 3.2
2015-May-23 09:29N 30°20' W 091°09'4 4.4
2015-May-23 08:32N 30°18' W 091°13'4 3.6
2015-May-23 07:17N 30°16' W 091°09'3 3.5
2015-May-23 06:32N 30°14' W 091°08'53 1.8
2015-May-22 01:28N 29°57' W 090°10'3 1.2
2015-May-21 23:14N 29°55' W 090°08'4 4.7
2015-May-21 22:18N 29°57' W 090°04'4 4.4
2015-May-21 21:22N 29°56' W 089°59'7 2.0
2015-May-21 18:06N 29°49' W 089°60'  
2015-May-19 04:10N 29°53' W 089°58'4 4.7
2015-May-19 03:25N 29°54' W 089°54'7 7.7
2015-May-19 02:30N 29°57' W 090°02'2 1.6
2015-May-19 01:32N 29°56' W 090°03'0 0.0
2015-May-19 00:28N 29°56' W 090°03'5 4.5
2015-May-18 23:28N 29°55' W 090°08'60 2.1
2015-May-17 19:05N 30°17' W 091°13'4 5.7
2015-May-17 18:18N 30°19' W 091°09'4 5.0
2015-May-17 17:33N 30°20' W 091°13'5 5.1
2015-May-17 16:33N 30°25' W 091°12'4 4.1
2015-May-17 15:33N 30°30' W 091°12'0 0.2
2015-May-17 14:34N 30°29' W 091°12'0 0.1
2015-May-17 13:33N 30°29' W 091°12'1 1.0
2015-May-17 12:34N 30°28' W 091°12'5 4.6
2015-May-17 11:33N 30°24' W 091°13'3 2.6
2015-May-17 10:23N 30°21' W 091°12'3 3.9
2015-May-17 09:32N 30°19' W 091°09'4 3.7
2015-May-17 08:26N 30°18' W 091°13'60 1.9
2015-May-16 00:09N 29°57' W 090°08'11 1.4
2015-May-15 16:24N 29°52' W 089°57'6 6.0
2015-May-15 15:22N 29°47' W 090°01'  
Track history (hours):
 
Tides and Currents Weather Stations Pressure Air Temp Water Temp Dewpoint Dewpoint Depression Visibility Wind Speed Wind Dir Waves Ship Positions

F.r. Bigelow

Owner: INGRAM BARGE COMPANY, Nashville, TN. More information available from US FCC via Universal Licensing System and Coast Guard Vessel Documentation Center.

Last reported at 2015-May-24 22:21 UTC. Time now 2015-May-25 17:36 UTC.
Position N 29°54' W 089°54'.

Length 46 m; draft 2.7 m.

Type: Tow > 200 m length. MMSI: 366953890.

Date/timePositionNaut miles runAvg speedWind from/ knotsBaromVisibWave heightAir tempDewpointWater temp
2015-May-24 22:21N 29°54' W 089°54'5 6.3
2015-May-24 21:31N 29°56' W 089°60'4 3.5
2015-May-24 20:30N 29°56' W 090°04'58 3.5
2015-May-24 04:09N 30°15' W 091°07'6 6.5
2015-May-24 03:11N 30°17' W 091°13'4 5.2
2015-May-24 02:20N 30°19' W 091°09'5 5.7
2015-May-24 01:32N 30°20' W 091°14'7 6.9
2015-May-24 00:34N 30°27' W 091°12'3 2.5
2015-May-23 23:33N 30°29' W 091°12'0 0.1
2015-May-23 22:33N 30°29' W 091°12'0 0.0
2015-May-23 21:34N 30°29' W 091°12'0 0.0
2015-May-23 20:34N 30°29' W 091°12'1 0.8
2015-May-23 19:33N 30°29' W 091°12'2 1.7
2015-May-23 18:33N 30°27' W 091°12'0 0.0
2015-May-23 17:34N 30°27' W 091°12'0 0.0
2015-May-23 16:33N 30°27' W 091°12'0 0.0
2015-May-23 15:34N 30°27' W 091°12'0 0.0
2015-May-23 14:34N 30°27' W 091°12'0 0.0
2015-May-23 13:34N 30°27' W 091°12'1 0.7
2015-May-23 12:33N 30°26' W 091°12'4 4.1
2015-May-23 11:34N 30°22' W 091°14'2 2.3
2015-May-23 10:33N 30°21' W 091°12'3 3.2
2015-May-23 09:29N 30°20' W 091°09'4 4.4
2015-May-23 08:32N 30°18' W 091°13'4 3.6
2015-May-23 07:17N 30°16' W 091°09'3 3.5
2015-May-23 06:32N 30°14' W 091°08'53 1.8
2015-May-22 01:28N 29°57' W 090°10'3 1.2
2015-May-21 23:14N 29°55' W 090°08'4 4.7
2015-May-21 22:18N 29°57' W 090°04'4 4.4
2015-May-21 21:22N 29°56' W 089°59'7 2.0
2015-May-21 18:06N 29°49' W 089°60'  
2015-May-19 04:10N 29°53' W 089°58'4 4.7
2015-May-19 03:25N 29°54' W 089°54'7 7.7
2015-May-19 02:30N 29°57' W 090°02'2 1.6
2015-May-19 01:32N 29°56' W 090°03'0 0.0
2015-May-19 00:28N 29°56' W 090°03'5 4.5
2015-May-18 23:28N 29°55' W 090°08'60 2.1
2015-May-17 19:05N 30°17' W 091°13'4 5.7
2015-May-17 18:18N 30°19' W 091°09'4 5.0
2015-May-17 17:33N 30°20' W 091°13'5 5.1
2015-May-17 16:33N 30°25' W 091°12'4 4.1
2015-May-17 15:33N 30°30' W 091°12'0 0.2
2015-May-17 14:34N 30°29' W 091°12'0 0.1
2015-May-17 13:33N 30°29' W 091°12'1 1.0
2015-May-17 12:34N 30°28' W 091°12'5 4.6
2015-May-17 11:33N 30°24' W 091°13'3 2.6
2015-May-17 10:23N 30°21' W 091°12'3 3.9
2015-May-17 09:32N 30°19' W 091°09'4 3.7
2015-May-17 08:26N 30°18' W 091°13'60 1.9
2015-May-16 00:09N 29°57' W 090°08'11 1.4
2015-May-15 16:24N 29°52' W 089°57'6 6.0
2015-May-15 15:22N 29°47' W 090°01'  

Dump ship's entire track history